Time;durP1;ratioP1;P1;durP2;ratioP2;P2;SDS_P1;SDS_P2;PMS_P1;PMS_P2;Temp;Humidity;BMP_temperature;BMP_pressure;BME280_temperature;BME280_humidity;BME280_pressure;Samples;Min_cycle;Max_cycle;Signal;HPM_P1;HPM_P2
2023/08/20 00:01:28;;;;;;;1.77;1.47;;;;;;;;;;5014076;28;20779;-73
2023/08/20 00:03:54;;;;;;;3.80;2.00;;;;;;;;;;5013926;28;20484;-71
2023/08/20 00:06:20;;;;;;;5.80;2.53;;;19.20;99.90;;;;;;5014085;28;20452;-73
2023/08/20 00:08:47;;;;;;;2.90;1.83;;;19.30;99.90;;;;;;5013950;28;20922;-72
2023/08/20 00:11:13;;;;;;;1.63;1.50;;;19.40;99.90;;;;;;5014073;28;20430;-72
2023/08/20 00:13:39;;;;;;;1.93;1.83;;;;;;;;;;5014085;28;20446;-72
2023/08/20 00:16:05;;;;;;;1.23;1.13;;;19.40;99.90;;;;;;5013814;28;20552;-72
2023/08/20 00:18:31;;;;;;;1.67;1.57;;;19.40;99.90;;;;;;5013802;28;20837;-72
2023/08/20 00:20:57;;;;;;;2.20;2.00;;;19.30;99.90;;;;;;5013533;28;20434;-72
2023/08/20 00:23:23;;;;;;;1.40;1.30;;;19.20;99.90;;;;;;5013967;28;20494;-71
2023/08/20 00:25:49;;;;;;;3.27;2.60;;;19.10;99.90;;;;;;5013284;28;20443;-72
2023/08/20 00:28:15;;;;;;;2.23;2.03;;;;;;;;;;5013533;28;20483;-73
2023/08/20 00:30:41;;;;;;;1.87;1.70;;;19.10;99.90;;;;;;5013796;28;20484;-72
2023/08/20 00:33:07;;;;;;;10.13;2.40;;;18.80;99.90;;;;;;5013680;28;20410;-71
2023/08/20 00:35:32;;;;;;;2.37;2.27;;;19.10;99.90;;;;;;5013483;28;20210;-72
2023/08/20 00:37:58;;;;;;;2.20;2.10;;;19.10;99.90;;;;;;5013582;28;20636;-72
2023/08/20 00:40:24;;;;;;;1.83;1.70;;;;;;;;;;5013618;28;20192;-72
2023/08/20 00:42:50;;;;;;;2.23;2.03;;;19.30;99.90;;;;;;5013606;28;20172;-72
2023/08/20 00:45:19;;;;;;;3.23;2.00;;;19.30;99.90;;;;;;5013307;28;20408;-73
2023/08/20 00:47:45;;;;;;;1.73;1.53;;;19.30;99.90;;;;;;5013540;28;20265;-72
2023/08/20 00:50:12;;;;;;;2.03;1.83;;;19.20;99.90;;;;;;5013641;28;20457;-73
2023/08/20 00:52:38;;;;;;;2.30;1.80;;;19.10;99.90;;;;;;5013611;28;20417;-73
2023/08/20 00:55:09;;;;;;;1.83;1.73;;;19.10;99.90;;;;;;5013215;28;20454;-72
2023/08/20 00:57:39;;;;;;;2.30;2.20;;;19.10;99.90;;;;;;5013710;28;20887;-71
2023/08/20 01:00:10;;;;;;;2.70;2.50;;;19.00;99.90;;;;;;5013367;28;20845;-72
2023/08/20 01:02:37;;;;;;;2.00;1.80;;;19.00;99.90;;;;;;5013435;28;20426;-71
2023/08/20 01:05:07;;;;;;;4.53;2.20;;;19.00;99.90;;;;;;5013274;28;20412;-73
2023/08/20 01:07:58;;;;;;;1.83;1.33;;;19.00;99.90;;;;;;4995897;28;20417;-72
2023/08/20 01:10:33;;;;;;;1.90;1.77;;;19.10;99.90;;;;;;5013475;28;20437;-72
2023/08/20 01:13:01;;;;;;;3.23;2.73;;;19.40;99.90;;;;;;5013663;28;20492;-72
2023/08/20 01:15:27;;;;;;;3.03;2.83;;;19.10;99.90;;;;;;5013127;28;20459;-71
2023/08/20 01:17:52;;;;;;;2.33;1.53;;;19.10;99.90;;;;;;5013345;28;20409;-73
2023/08/20 01:20:20;;;;;;;3.73;3.07;;;19.10;99.90;;;;;;5013317;28;20206;-71
2023/08/20 01:23:27;;;;;;;5.20;1.67;;;19.00;99.90;;;;;;5013211;28;20175;-72
2023/08/20 01:25:59;;;;;;;1.63;1.40;;;18.90;99.90;;;;;;5013046;28;20484;-72
2023/08/20 01:28:27;;;;;;;3.10;2.60;;;18.90;99.90;;;;;;5013556;28;20931;-71
2023/08/20 01:30:57;;;;;;;2.30;2.10;;;18.80;99.90;;;;;;5013233;28;20434;-71
2023/08/20 01:33:26;;;;;;;2.43;2.03;;;18.70;99.90;;;;;;5015963;28;20395;-72
2023/08/20 01:35:53;;;;;;;1.90;1.80;;;18.80;99.90;;;;;;5016632;28;20450;-72
2023/08/20 01:38:18;;;;;;;1.63;1.20;;;18.80;99.90;;;;;;5016826;28;20405;-71
2023/08/20 01:40:44;;;;;;;3.20;2.33;;;18.80;99.90;;;;;;5016944;28;20427;-71
2023/08/20 01:43:10;;;;;;;2.60;2.00;;;18.80;99.90;;;;;;5016723;28;20255;-71
2023/08/20 01:45:36;;;;;;;2.37;2.10;;;18.90;99.90;;;;;;5016452;28;20440;-71
2023/08/20 01:48:03;;;;;;;5.83;2.57;;;18.80;99.90;;;;;;5016782;28;20178;-72
2023/08/20 01:50:29;;;;;;;1.50;1.47;;;18.80;99.90;;;;;;5016523;28;20433;-71
2023/08/20 01:52:55;;;;;;;2.87;2.13;;;;;;;;;;5016695;28;20410;-72
2023/08/20 01:55:21;;;;;;;12.20;2.10;;;18.80;99.90;;;;;;5016331;28;20513;-72
2023/08/20 01:57:46;;;;;;;2.90;2.70;;;18.80;99.90;;;;;;5016599;28;20425;-73
2023/08/20 02:00:13;;;;;;;3.63;2.80;;;18.90;99.90;;;;;;5016406;28;20552;-72
2023/08/20 02:02:38;;;;;;;2.10;2.00;;;18.90;99.90;;;;;;5016245;28;20665;-72
2023/08/20 02:05:04;;;;;;;2.00;1.90;;;18.90;99.90;;;;;;5016286;28;20493;-72
2023/08/20 02:07:30;;;;;;;1.50;1.40;;;18.90;99.90;;;;;;5016605;28;20533;-72
2023/08/20 02:09:55;;;;;;;0.80;0.80;;;18.80;99.90;;;;;;5016254;28;20262;-72
2023/08/20 02:12:21;;;;;;;2.63;1.40;;;18.90;99.90;;;;;;5016176;28;20185;-72
2023/08/20 02:14:47;;;;;;;2.57;2.33;;;18.90;99.90;;;;;;5015864;28;20206;-73
2023/08/20 02:17:14;;;;;;;2.20;2.00;;;18.90;99.90;;;;;;4998630;28;20231;-72
2023/08/20 02:19:39;;;;;;;2.30;2.10;;;19.00;99.90;;;;;;5015950;28;20185;-72
2023/08/20 02:22:05;;;;;;;2.40;1.30;;;19.00;99.90;;;;;;5016076;28;20435;-73
2023/08/20 02:24:30;;;;;;;3.10;2.30;;;18.90;99.90;;;;;;5015739;28;20184;-73
2023/08/20 02:26:56;;;;;;;2.00;1.90;;;18.80;99.90;;;;;;5016100;28;20669;-73
2023/08/20 02:29:22;;;;;;;2.90;2.80;;;18.90;99.90;;;;;;5015905;28;20177;-72
2023/08/20 02:31:48;;;;;;;2.97;2.13;;;18.90;99.90;;;;;;5015784;28;20245;-71
2023/08/20 02:34:14;;;;;;;3.50;1.87;;;;;;;;;;5015791;28;20232;-71
2023/08/20 02:36:39;;;;;;;1.90;1.80;;;18.90;99.90;;;;;;5015820;28;20175;-72
2023/08/20 02:39:07;;;;;;;2.60;2.07;;;18.90;99.90;;;;;;5015799;28;20897;-72
2023/08/20 02:41:34;;;;;;;1.77;1.63;;;18.70;99.90;;;;;;5015592;28;20599;-72
2023/08/20 02:44:00;;;;;;;2.70;2.50;;;18.80;99.90;;;;;;5015283;28;20409;-71
2023/08/20 02:46:25;;;;;;;2.63;2.20;;;18.80;99.90;;;;;;5015490;28;20452;-72
2023/08/20 02:48:51;;;;;;;2.00;1.43;;;18.70;99.90;;;;;;5015559;28;20177;-72
2023/08/20 02:51:17;;;;;;;2.90;2.70;;;18.70;99.90;;;;;;5015364;28;20198;-72
2023/08/20 02:53:43;;;;;;;1.73;1.63;;;18.40;99.90;;;;;;5015715;28;20179;-72
2023/08/20 02:56:08;;;;;;;1.43;1.33;;;18.70;99.90;;;;;;5015257;28;20670;-72
2023/08/20 02:58:34;;;;;;;2.43;2.20;;;18.60;99.90;;;;;;5015477;28;20460;-72
2023/08/20 03:01:00;;;;;;;3.13;2.93;;;18.60;99.90;;;;;;5015247;28;20563;-71
2023/08/20 03:03:26;;;;;;;2.70;2.50;;;;;;;;;;5015243;28;20226;-72
2023/08/20 03:05:51;;;;;;;1.13;1.03;;;18.70;99.90;;;;;;5015055;28;20186;-72
2023/08/20 03:08:17;;;;;;;2.40;2.30;;;18.80;99.90;;;;;;5015095;28;20415;-72
2023/08/20 03:10:43;;;;;;;2.67;2.23;;;18.80;99.90;;;;;;5015063;28;20202;-72
2023/08/20 03:13:08;;;;;;;2.80;2.60;;;18.90;99.90;;;;;;5014354;28;20636;-72
2023/08/20 03:15:34;;;;;;;2.80;2.30;;;18.80;99.90;;;;;;5014900;28;20209;-72
2023/08/20 03:17:59;;;;;;;3.53;3.33;;;18.60;99.90;;;;;;5015047;28;20170;-72
2023/08/20 03:20:26;;;;;;;2.57;2.43;;;18.90;99.90;;;;;;4997194;28;20818;-72
2023/08/20 03:22:52;;;;;;;2.53;2.30;;;18.90;99.90;;;;;;5014781;28;20170;-72
2023/08/20 03:25:18;;;;;;;3.00;2.50;;;19.00;99.90;;;;;;5014673;28;20420;-72
2023/08/20 03:27:44;;;;;;;3.20;1.60;;;18.90;99.90;;;;;;5014770;28;20646;-72
2023/08/20 03:30:10;;;;;;;1.37;1.27;;;18.50;99.90;;;;;;5014697;28;20268;-73
2023/08/20 03:32:36;;;;;;;1.53;1.43;;;18.50;99.90;;;;;;5014785;28;20421;-72
2023/08/20 03:35:01;;;;;;;2.73;2.27;;;18.80;99.90;;;;;;5014420;28;20458;-72
2023/08/20 03:37:27;;;;;;;1.90;1.80;;;18.70;99.90;;;;;;5014464;28;20173;-72
2023/08/20 03:39:53;;;;;;;4.50;1.60;;;18.60;99.90;;;;;;5014875;28;20413;-71
2023/08/20 03:42:18;;;;;;;2.80;2.53;;;18.60;99.90;;;;;;5014428;28;20179;-72
2023/08/20 03:44:44;;;;;;;3.27;2.93;;;18.70;99.90;;;;;;5014355;28;20294;-72
2023/08/20 03:47:10;;;;;;;2.37;1.30;;;18.70;99.90;;;;;;5014745;28;20174;-72
2023/08/20 03:49:36;;;;;;;1.47;1.37;;;18.60;99.90;;;;;;5014344;28;20257;-72
2023/08/20 03:52:02;;;;;;;2.40;2.20;;;18.60;99.90;;;;;;5014756;28;20435;-72
2023/08/20 03:54:29;;;;;;;6.40;2.13;;;18.60;99.90;;;;;;5013687;28;20685;-72
2023/08/20 03:56:55;;;;;;;1.43;1.33;;;18.50;99.90;;;;;;5014133;28;20510;-73
2023/08/20 03:59:21;;;;;;;5.40;2.20;;;18.60;99.90;;;;;;5014136;28;20893;-72
2023/08/20 04:01:46;;;;;;;3.17;1.80;;;19.00;99.90;;;;;;5014108;28;20421;-72
2023/08/20 04:04:12;;;;;;;2.37;2.17;;;;;;;;;;5014057;28;20165;-72
2023/08/20 04:06:38;;;;;;;3.43;3.23;;;18.60;99.90;;;;;;4996536;28;20776;-72
2023/08/20 04:09:05;;;;;;;5.13;3.53;;;18.80;99.90;;;;;;5014079;28;20410;-72
2023/08/20 04:11:31;;;;;;;1.17;1.17;;;18.80;99.90;;;;;;5013905;28;20194;-72
2023/08/20 04:13:56;;;;;;;2.30;2.10;;;18.80;99.90;;;;;;5013830;28;20399;-71
2023/08/20 04:16:22;;;;;;;2.33;2.13;;;18.90;99.90;;;;;;5014049;28;20168;-72
2023/08/20 04:18:48;;;;;;;1.50;1.40;;;19.00;99.90;;;;;;5013833;28;20221;-72
2023/08/20 04:21:13;;;;;;;2.03;1.70;;;18.80;99.90;;;;;;5014001;28;20186;-72
2023/08/20 04:23:41;;;;;;;1.83;1.73;;;18.80;99.90;;;;;;5014047;28;20173;-72
2023/08/20 04:26:07;;;;;;;1.67;1.57;;;18.70;99.90;;;;;;5013741;28;20167;-71
2023/08/20 04:28:32;;;;;;;2.60;2.40;;;18.80;99.90;;;;;;5013751;28;20406;-72
2023/08/20 04:31:00;;;;;;;4.20;3.77;;;;;;;;;;5013677;28;20445;-72
2023/08/20 04:33:26;;;;;;;2.13;2.03;;;19.00;99.90;;;;;;5013805;28;20190;-72
2023/08/20 04:35:51;;;;;;;3.33;2.07;;;18.90;99.90;;;;;;5013383;28;20464;-73
2023/08/20 04:38:17;;;;;;;1.73;1.67;;;18.90;99.90;;;;;;5013676;28;20460;-73
2023/08/20 04:40:46;;;;;;;2.80;2.60;;;19.00;99.90;;;;;;5013669;28;20223;-72
2023/08/20 04:43:12;;;;;;;1.80;1.70;;;19.10;99.90;;;;;;5013588;28;20413;-72
2023/08/20 04:45:38;;;;;;;3.93;2.50;;;;;;;;;;5013556;28;20410;-71
2023/08/20 04:48:04;;;;;;;2.27;2.17;;;;;;;;;;5013521;28;20635;-72
2023/08/20 04:50:29;;;;;;;2.77;1.97;;;19.40;99.90;;;;;;5013632;28;20458;-72
2023/08/20 04:52:55;;;;;;;1.83;1.73;;;19.30;99.90;;;;;;5013607;28;20871;-72
2023/08/20 04:55:21;;;;;;;2.80;1.97;;;19.30;99.90;;;;;;5013402;28;20207;-73
2023/08/20 04:57:46;;;;;;;2.50;2.40;;;19.40;99.90;;;;;;5013730;28;20177;-72
2023/08/20 05:00:12;;;;;;;2.57;2.40;;;19.40;99.90;;;;;;5013519;28;20195;-73
2023/08/20 05:02:37;;;;;;;1.70;1.60;;;19.50;99.90;;;;;;5013446;28;20182;-72
2023/08/20 05:05:03;;;;;;;2.53;2.13;;;19.50;99.90;;;;;;5013262;28;20215;-72
2023/08/20 05:07:29;;;;;;;2.30;2.17;;;;;;;;;;5016338;28;20175;-71
2023/08/20 05:09:55;;;;;;;2.10;1.90;;;19.60;99.90;;;;;;5017486;28;20488;-73
2023/08/20 05:12:21;;;;;;;2.17;1.97;;;19.70;99.90;;;;;;5017411;28;20922;-71
2023/08/20 05:14:46;;;;;;;1.47;1.37;;;19.80;99.90;;;;;;5017104;28;20283;-73
2023/08/20 05:17:12;;;;;;;2.37;2.17;;;19.70;99.90;;;;;;5017409;28;20175;-72
2023/08/20 05:19:38;;;;;;;1.40;1.17;;;19.80;99.90;;;;;;5017082;28;20249;-72
2023/08/20 05:22:03;;;;;;;3.53;2.60;;;19.80;99.90;;;;;;5017254;28;20200;-72
2023/08/20 05:24:29;;;;;;;1.40;1.30;;;19.80;99.90;;;;;;5016959;28;20168;-73
2023/08/20 05:27:14;;;;;;;1.30;1.20;;;20.00;99.90;;;;;;5017210;28;20185;-72
2023/08/20 05:29:41;;;;;;;1.50;1.40;;;20.00;99.90;;;;;;5017299;28;20176;-72
2023/08/20 05:32:07;;;;;;;1.43;1.33;;;20.00;99.90;;;;;;5017050;28;20485;-72
2023/08/20 05:34:33;;;;;;;1.97;1.87;;;20.00;99.90;;;;;;5016872;28;20509;-71
2023/08/20 05:36:59;;;;;;;3.47;2.47;;;20.00;99.90;;;;;;5017026;28;20406;-71
2023/08/20 05:39:28;;;;;;;2.77;2.57;;;19.90;99.90;;;;;;5016906;28;20226;-72
2023/08/20 05:41:54;;;;;;;2.10;2.00;;;19.90;99.90;;;;;;5016712;28;20431;-72
2023/08/20 05:44:20;;;;;;;1.80;1.70;;;19.90;99.90;;;;;;5016640;28;20773;-72
2023/08/20 05:46:45;;;;;;;1.73;1.63;;;19.90;99.90;;;;;;5017073;28;20415;-71
2023/08/20 05:49:13;;;;;;;2.33;1.77;;;20.00;99.90;;;;;;5016590;28;20402;-71
2023/08/20 05:51:40;;;;;;;4.23;2.27;;;;;;;;;;5016534;28;20231;-72
2023/08/20 05:54:05;;;;;;;2.97;2.30;;;20.50;99.90;;;;;;5016459;28;20575;-72
2023/08/20 05:56:31;;;;;;;2.33;2.20;;;;;;;;;;5016637;28;20921;-73
2023/08/20 05:58:57;;;;;;;1.83;1.70;;;22.50;99.90;;;;;;5016432;28;20659;-73
2023/08/20 06:01:22;;;;;;;2.90;2.50;;;23.80;99.40;;;;;;5016566;28;20434;-73
2023/08/20 06:03:48;;;;;;;2.60;2.37;;;;;;;;;;5016386;28;20202;-73
2023/08/20 06:06:14;;;;;;;2.20;1.97;;;;;;;;;;5016193;28;20702;-72
2023/08/20 06:08:40;;;;;;;2.70;2.50;;;25.10;95.90;;;;;;5016366;28;20435;-73
2023/08/20 06:11:06;;;;;;;1.97;1.87;;;25.80;94.70;;;;;;5016055;28;20442;-72
2023/08/20 06:13:31;;;;;;;1.33;1.23;;;26.20;94.30;;;;;;5016173;28;20539;-73
2023/08/20 06:15:57;;;;;;;1.73;1.63;;;27.10;92.80;;;;;;5015900;28;20206;-73
2023/08/20 06:18:22;;;;;;;1.90;1.63;;;27.90;91.70;;;;;;5015466;28;20171;-73
2023/08/20 06:20:48;;;;;;;2.57;2.37;;;28.50;90.30;;;;;;5015917;28;20629;-72
2023/08/20 06:23:14;;;;;;;4.27;2.53;;;28.90;89.20;;;;;;4998505;28;20182;-73
2023/08/20 06:25:40;;;;;;;1.80;1.70;;;;;;;;;;4998289;28;20180;-73
2023/08/20 06:28:05;;;;;;;1.50;1.40;;;29.00;84.10;;;;;;5015979;28;20180;-74
2023/08/20 06:30:31;;;;;;;2.43;2.27;;;28.80;86.20;;;;;;5016000;28;20430;-74
2023/08/20 06:32:56;;;;;;;3.47;1.60;;;28.70;86.90;;;;;;4998269;28;20182;-73
2023/08/20 06:35:22;;;;;;;2.77;1.80;;;28.60;87.50;;;;;;5015680;28;20211;-73
2023/08/20 06:37:48;;;;;;;2.17;1.47;;;28.70;87.70;;;;;;5015895;28;20171;-72
2023/08/20 06:40:16;;;;;;;1.93;1.73;;;29.10;86.30;;;;;;5015798;28;20191;-72
2023/08/20 06:42:42;;;;;;;2.10;1.87;;;29.10;86.80;;;;;;5015658;28;20193;-72
2023/08/20 06:45:09;;;;;;;1.90;1.67;;;29.30;87.20;;;;;;4997932;28;20492;-73
2023/08/20 06:47:34;;;;;;;3.00;2.03;;;29.40;86.70;;;;;;5015614;28;20179;-72
2023/08/20 06:50:00;;;;;;;2.13;1.73;;;29.50;99.90;;;;;;5015485;28;20406;-73
2023/08/20 06:52:25;;;;;;;2.00;1.70;;;29.20;86.50;;;;;;5015535;28;20183;-73
2023/08/20 06:54:51;;;;;;;1.57;1.47;;;29.00;86.50;;;;;;5015367;28;20733;-74
2023/08/20 06:57:17;;;;;;;2.23;2.13;;;28.90;87.40;;;;;;5015549;28;20171;-72
2023/08/20 06:59:43;;;;;;;2.17;2.00;;;;;;;;;;5015950;28;20219;-73
2023/08/20 07:02:10;;;;;;;3.30;2.60;;;28.60;86.70;;;;;;5015193;28;20191;-72
2023/08/20 07:04:35;;;;;;;1.97;1.77;;;28.50;87.40;;;;;;5015352;28;20555;-73
2023/08/20 07:07:01;;;;;;;2.20;2.00;;;28.60;87.90;;;;;;5015150;28;20497;-73
2023/08/20 07:09:27;;;;;;;2.57;2.37;;;28.50;89.50;;;;;;5015101;28;20559;-73
2023/08/20 07:11:52;;;;;;;2.00;1.90;;;28.50;89.50;;;;;;5014997;28;20196;-73
2023/08/20 07:14:18;;;;;;;2.07;1.97;;;28.40;87.60;;;;;;4997254;28;20322;-73
2023/08/20 07:16:43;;;;;;;1.70;1.60;;;28.50;88.70;;;;;;5015084;28;20243;-72
2023/08/20 07:19:09;;;;;;;2.20;2.00;;;28.60;88.80;;;;;;5014840;28;20636;-73
2023/08/20 07:21:34;;;;;;;1.80;1.70;;;28.50;86.80;;;;;;5015055;28;20246;-73
2023/08/20 07:24:00;;;;;;;2.20;2.10;;;28.40;88.20;;;;;;5014843;28;20174;-72
2023/08/20 07:26:26;;;;;;;1.80;1.70;;;28.40;88.90;;;;;;5014985;28;20639;-73
2023/08/20 07:28:58;;;;;;;2.77;2.00;;;28.70;89.40;;;;;;5014856;28;20961;-74
2023/08/20 07:31:28;;;;;;;1.60;1.50;;;29.30;87.00;;;;;;5013926;28;20721;-72
2023/08/20 07:33:56;;;;;;;4.17;2.17;;;31.20;80.20;;;;;;5014571;28;20741;-74
2023/08/20 07:36:22;;;;;;;3.07;2.63;;;32.10;78.30;;;;;;5014619;28;20462;-72
2023/08/20 07:38:49;;;;;;;2.97;2.17;;;32.10;79.00;;;;;;5014779;28;20407;-73
2023/08/20 07:41:15;;;;;;;5.03;2.43;;;33.20;75.60;;;;;;5014672;28;20856;-74
2023/08/20 07:43:41;;;;;;;1.70;1.37;;;35.50;67.90;;;;;;5014702;28;20490;-71
2023/08/20 07:46:08;;;;;;;1.20;1.20;;;35.50;68.60;;;;;;5014394;28;20250;-72
2023/08/20 07:48:34;;;;;;;2.27;2.13;;;37.00;67.00;;;;;;5014451;28;20449;-72
2023/08/20 07:51:07;;;;;;;2.30;2.10;;;38.70;71.30;;;;;;5091058;28;20521;-72
2023/08/20 07:53:33;;;;;;;3.73;1.87;;;39.90;56.00;;;;;;5091038;28;20399;-72
2023/08/20 07:56:00;;;;;;;1.83;1.73;;;42.00;48.00;;;;;;5090602;28;20169;-71
2023/08/20 07:58:27;;;;;;;1.50;1.40;;;41.90;48.50;;;;;;5090808;28;20901;-72
2023/08/20 08:00:53;;;;;;;1.53;1.43;;;42.80;45.90;;;;;;5090758;28;20411;-72
2023/08/20 08:03:19;;;;;;;1.70;1.60;;;43.70;43.60;;;;;;5090634;28;20951;-71
2023/08/20 08:05:49;;;;;;;2.17;1.97;;;44.10;41.10;;;;;;5090589;28;20165;-72
2023/08/20 08:08:18;;;;;;;1.90;1.70;;;44.30;40.00;;;;;;5090607;28;20697;-72
2023/08/20 08:10:44;;;;;;;1.60;1.50;;;44.70;39.50;;;;;;5090732;28;20468;-72
2023/08/20 08:13:15;;;;;;;2.60;1.87;;;44.90;38.70;;;;;;5090499;28;20430;-71
2023/08/20 08:15:41;;;;;;;1.17;1.07;;;45.20;37.20;;;;;;5090404;28;20215;-72
2023/08/20 08:18:07;;;;;;;2.30;1.73;;;45.40;37.20;;;;;;5090484;28;20200;-72
2023/08/20 08:20:33;;;;;;;1.77;1.67;;;45.50;37.30;;;;;;5090413;28;20678;-72
2023/08/20 08:22:59;;;;;;;2.67;2.10;;;45.80;35.40;;;;;;5090497;28;20195;-72
2023/08/20 08:25:25;;;;;;;1.40;1.30;;;45.80;35.20;;;;;;5090161;28;20695;-72
2023/08/20 08:27:50;;;;;;;1.58;1.48;;;45.80;35.10;;;;;;5090496;28;20176;-71
2023/08/20 08:30:17;;;;;;;1.95;1.85;;;46.00;34.30;;;;;;5090072;28;20281;-72
2023/08/20 08:32:43;;;;;;;1.27;1.17;;;46.00;35.60;;;;;;5090208;28;20169;-72
2023/08/20 08:35:08;;;;;;;2.13;1.98;;;46.20;35.80;;;;;;5089943;28;20535;-72
2023/08/20 08:37:34;;;;;;;2.70;2.50;;;46.30;35.60;;;;;;5090077;28;20179;-72
2023/08/20 08:40:00;;;;;;;1.98;1.75;;;46.70;51.00;;;;;;5089891;28;20179;-72
2023/08/20 08:42:26;;;;;;;1.52;1.45;;;46.50;33.10;;;;;;5089947;28;20179;-72
2023/08/20 08:44:52;;;;;;;2.65;2.03;;;46.40;33.40;;;;;;5089843;28;20532;-72
2023/08/20 08:47:20;;;;;;;2.05;1.95;;;46.40;34.50;;;;;;5089815;28;20663;-72
2023/08/20 08:49:47;;;;;;;1.67;1.58;;;46.50;33.90;;;;;;5089652;28;20200;-72
2023/08/20 08:52:14;;;;;;;4.45;2.05;;;46.60;34.50;;;;;;5089728;28;20238;-72
2023/08/20 08:54:39;;;;;;;1.58;1.48;;;46.40;32.80;;;;;;5089622;28;20172;-72
2023/08/20 08:57:06;;;;;;;2.25;2.05;;;;;;;;;;5089703;28;20176;-72
2023/08/20 08:59:32;;;;;;;2.83;1.92;;;45.80;33.60;;;;;;5089781;28;20208;-72
2023/08/20 09:01:57;;;;;;;3.05;1.75;;;45.90;34.90;;;;;;5078987;28;20236;-72
2023/08/20 09:04:23;;;;;;;3.08;1.83;;;46.00;34.50;;;;;;5075957;28;20645;-71
2023/08/20 09:06:55;;;;;;;1.33;1.23;;;46.40;33.80;;;;;;5076007;28;20181;-72
2023/08/20 09:09:21;;;;;;;2.53;2.10;;;46.40;34.00;;;;;;5075996;28;20196;-72
2023/08/20 09:11:50;;;;;;;2.10;1.58;;;46.30;34.90;;;;;;5076155;28;20191;-72
2023/08/20 09:14:28;;;;;;;3.05;1.85;;;46.50;33.00;;;;;;5075726;28;20625;-72
2023/08/20 09:16:56;;;;;;;1.73;1.63;;;46.60;31.90;;;;;;5076022;28;20173;-72
2023/08/20 09:19:21;;;;;;;2.03;1.83;;;46.00;32.70;;;;;;5075761;28;20172;-72
2023/08/20 09:21:48;;;;;;;1.70;1.50;;;45.00;34.20;;;;;;5075577;28;20513;-72
2023/08/20 09:24:14;;;;;;;1.70;1.60;;;44.40;35.50;;;;;;5075662;28;20169;-72
2023/08/20 09:26:39;;;;;;;1.00;1.00;;;44.20;34.90;;;;;;5075648;28;20457;-72
2023/08/20 09:29:05;;;;;;;2.43;1.97;;;44.40;35.50;;;;;;5075639;28;20279;-72
2023/08/20 09:31:40;;;;;;;1.83;1.73;;;44.60;34.20;;;;;;5075375;28;20239;-72
2023/08/20 09:34:05;;;;;;;2.10;1.90;;;44.40;34.90;;;;;;5075474;28;20251;-72
2023/08/20 09:36:33;;;;;;;2.23;1.70;;;44.00;34.70;;;;;;5075494;28;20899;-72
2023/08/20 09:38:58;;;;;;;3.37;2.07;;;43.70;36.10;;;;;;5075457;28;20223;-72
2023/08/20 09:41:24;;;;;;;1.50;1.40;;;;;;;;;;5075433;28;20427;-72
2023/08/20 09:43:57;;;;;;;3.53;2.33;;;43.10;36.00;;;;;;5075331;28;20185;-72
2023/08/20 09:46:30;;;;;;;2.20;2.10;;;43.00;36.90;;;;;;5075633;28;20465;-72
2023/08/20 09:48:59;;;;;;;2.50;2.30;;;42.70;37.70;;;;;;5074970;28;20408;-72
2023/08/20 09:51:28;;;;;;;2.37;2.17;;;42.60;38.20;;;;;;5075075;28;20485;-71
2023/08/20 09:54:04;;;;;;;2.43;2.23;;;42.00;37.20;;;;;;5074968;28;20407;-73
2023/08/20 09:56:31;;;;;;;1.73;1.63;;;42.00;37.70;;;;;;5075186;28;20399;-72
2023/08/20 09:59:00;;;;;;;2.10;2.00;;;41.70;37.90;;;;;;5075051;28;20507;-71
2023/08/20 10:01:27;;;;;;;2.13;2.03;;;41.50;38.70;;;;;;5074856;28;20427;-72
2023/08/20 10:03:53;;;;;;;1.67;1.57;;;41.20;37.70;;;;;;5075111;28;20801;-72
2023/08/20 10:06:20;;;;;;;2.10;1.83;;;41.20;38.30;;;;;;5075015;28;20411;-72
2023/08/20 10:08:46;;;;;;;2.33;2.07;;;41.60;37.30;;;;;;5074679;28;20415;-72
2023/08/20 10:11:12;;;;;;;2.63;2.00;;;41.60;37.90;;;;;;5074885;28;20796;-72
2023/08/20 10:13:38;;;;;;;2.40;2.20;;;41.50;36.70;;;;;;5073725;28;20404;-72
2023/08/20 10:16:04;;;;;;;1.93;1.80;;;41.50;36.50;;;;;;5074580;28;20411;-72
2023/08/20 10:18:30;;;;;;;1.90;1.80;;;;;;;;;;5074615;28;20412;-72
2023/08/20 10:21:01;;;;;;;2.17;2.00;;;40.90;37.50;;;;;;5074479;28;20197;-72
2023/08/20 10:23:27;;;;;;;1.73;1.63;;;40.60;39.80;;;;;;5074585;28;20411;-72
2023/08/20 10:25:53;;;;;;;2.20;2.00;;;40.40;38.40;;;;;;5074082;28;20906;-72
2023/08/20 10:28:28;;;;;;;2.87;2.67;;;40.30;38.90;;;;;;5074402;28;20181;-72
2023/08/20 10:31:11;;;;;;;2.47;2.30;;;40.00;39.50;;;;;;5074580;28;20972;-71
2023/08/20 10:33:53;;;;;;;3.40;2.70;;;39.50;40.30;;;;;;5074310;28;20407;-72
2023/08/20 10:36:28;;;;;;;2.13;2.03;;;39.00;41.60;;;;;;5074262;28;20896;-72
2023/08/20 10:38:58;;;;;;;2.63;2.43;;;39.00;42.00;;;;;;5074256;28;20396;-72
2023/08/20 10:41:28;;;;;;;2.73;2.13;;;38.80;41.50;;;;;;5074197;28;20423;-71
2023/08/20 10:43:58;;;;;;;1.83;1.73;;;38.50;41.30;;;;;;5074067;28;20832;-72
2023/08/20 10:46:25;;;;;;;3.03;2.77;;;38.40;42.00;;;;;;5074347;28;20875;-71
2023/08/20 10:48:53;;;;;;;2.47;2.27;;;38.00;42.70;;;;;;5073878;28;20831;-71
2023/08/20 10:51:26;;;;;;;2.03;1.90;;;37.50;42.70;;;;;;5073891;28;20923;-71
2023/08/20 10:54:00;;;;;;;2.70;2.50;;;37.20;44.40;;;;;;5073970;28;20479;-71
2023/08/20 10:56:42;;;;;;;3.50;2.50;;;37.00;44.50;;;;;;5074104;28;20784;-71
2023/08/20 10:59:16;;;;;;;2.53;2.10;;;36.70;44.30;;;;;;5073715;28;20960;-72
2023/08/20 11:01:45;;;;;;;1.60;1.50;;;36.50;45.30;;;;;;5073701;28;20432;-71
2023/08/20 11:04:11;;;;;;;2.60;2.40;;;36.00;46.10;;;;;;5073751;28;20430;-71
2023/08/20 11:06:38;;;;;;;3.67;3.30;;;;;;;;;;5073743;28;20412;-71
2023/08/20 11:09:05;;;;;;;2.87;2.67;;;35.40;47.60;;;;;;5073568;28;20414;-71
2023/08/20 11:11:31;;;;;;;2.53;2.33;;;35.20;49.00;;;;;;5073521;28;20431;-72
2023/08/20 11:13:57;;;;;;;5.47;2.27;;;;;;;;;;5073427;28;20404;-72
2023/08/20 11:16:23;;;;;;;2.40;2.17;;;35.00;48.70;;;;;;5073540;28;20411;-71
2023/08/20 11:18:48;;;;;;;2.00;1.90;;;34.80;48.80;;;;;;5072347;28;20412;-71
2023/08/20 11:21:14;;;;;;;2.50;2.30;;;34.60;47.90;;;;;;5073401;28;20185;-71
2023/08/20 11:23:41;;;;;;;2.97;2.70;;;34.30;49.30;;;;;;5073385;28;20635;-72
2023/08/20 11:26:07;;;;;;;2.80;2.57;;;34.30;50.30;;;;;;5073404;28;20260;-72
2023/08/20 11:28:33;;;;;;;4.17;2.33;;;;;;;;;;5073531;28;20415;-71
2023/08/20 11:31:01;;;;;;;4.40;2.50;;;34.50;47.30;;;;;;5073307;28;20471;-71
2023/08/20 11:33:29;;;;;;;2.57;2.37;;;34.60;50.70;;;;;;5073423;28;20873;-72
2023/08/20 11:35:54;;;;;;;2.30;2.20;;;34.60;50.40;;;;;;5073342;28;20495;-71
2023/08/20 11:38:25;;;;;;;3.20;2.30;;;34.40;48.70;;;;;;5073355;28;20511;-71
2023/08/20 11:40:51;;;;;;;3.53;2.93;;;;;;;;;;5073460;28;20200;-71
2023/08/20 11:43:17;;;;;;;2.70;1.80;;;34.20;48.90;;;;;;5073427;28;20736;-71
2023/08/20 11:45:47;;;;;;;2.10;1.90;;;34.10;49.20;;;;;;5073087;28;20412;-71
2023/08/20 11:48:13;;;;;;;2.10;1.90;;;33.70;50.30;;;;;;5073352;28;20173;-72
2023/08/20 11:50:40;;;;;;;3.30;2.10;;;33.70;50.20;;;;;;5073148;28;20471;-72
2023/08/20 11:53:06;;;;;;;2.80;2.20;;;33.60;49.00;;;;;;5073339;28;20400;-72
2023/08/20 11:55:32;;;;;;;1.77;1.67;;;33.70;50.60;;;;;;5072904;28;20503;-71
2023/08/20 11:57:57;;;;;;;2.13;1.93;;;33.80;48.90;;;;;;5073165;28;20166;-72
2023/08/20 12:00:27;;;;;;;4.90;1.80;;;33.80;48.60;;;;;;5073217;28;20197;-72
2023/08/20 12:02:57;;;;;;;2.37;2.17;;;33.60;48.20;;;;;;5073065;28;20175;-71
2023/08/20 12:05:29;;;;;;;5.50;2.53;;;33.60;47.50;;;;;;5072918;28;20473;-71
2023/08/20 12:07:58;;;;;;;3.57;1.80;;;33.60;47.90;;;;;;5073235;28;20407;-71
2023/08/20 12:10:26;;;;;;;2.07;1.97;;;33.60;47.70;;;;;;5072886;28;20463;-71
2023/08/20 12:12:52;;;;;;;3.07;2.63;;;33.30;48.00;;;;;;5072987;28;20426;-71
2023/08/20 12:15:21;;;;;;;2.07;1.97;;;;;;;;;;5072971;28;20815;-70
2023/08/20 12:18:19;;;;;;;2.70;2.17;;;33.20;47.50;;;;;;5073026;28;20400;-72
2023/08/20 12:20:44;;;;;;;2.83;2.63;;;33.20;50.00;;;;;;5072128;28;20916;-71
2023/08/20 12:23:10;;;;;;;2.70;2.23;;;33.20;49.40;;;;;;5072845;28;20403;-71
2023/08/20 12:25:36;;;;;;;2.50;2.30;;;33.40;49.90;;;;;;5072789;28;20211;-70
2023/08/20 12:28:05;;;;;;;1.80;1.40;;;33.10;49.90;;;;;;5072815;28;20282;-72
2023/08/20 12:30:32;;;;;;;3.03;2.83;;;32.70;49.10;;;;;;5072867;28;20460;-74
2023/08/20 12:32:57;;;;;;;2.60;2.33;;;32.70;49.60;;;;;;5072792;28;20461;-73
2023/08/20 12:35:23;;;;;;;4.20;2.00;;;32.60;49.10;;;;;;5072714;28;20880;-73
2023/08/20 12:37:49;;;;;;;3.20;2.90;;;32.50;50.90;;;;;;5076308;28;20223;-73
2023/08/20 12:40:14;;;;;;;2.80;1.83;;;32.40;51.80;;;;;;5076392;28;20199;-73
2023/08/20 12:42:40;;;;;;;1.93;1.83;;;;;;;;;;5076460;28;20543;-73
2023/08/20 12:45:07;;;;;;;3.23;2.33;;;32.50;52.20;;;;;;5076282;28;20261;-74
2023/08/20 12:47:33;;;;;;;2.70;2.50;;;32.60;52.80;;;;;;5076496;28;20412;-73
2023/08/20 12:49:59;;;;;;;3.33;3.00;;;32.80;78.00;;;;;;5076028;28;20827;-74
2023/08/20 12:52:25;;;;;;;2.53;2.33;;;32.60;52.20;;;;;;5076645;28;20403;-74
2023/08/20 12:54:51;;;;;;;2.30;2.10;;;;;;;;;;5076022;28;20174;-73